Airfield :
LOGIN :

Register | Disclaimer

   EN    FR    IT 

 










Legend :    VFR   Marginal VFR   IFR   Intensive IFR   Very Intensive IFR
Visi :
Ceiling :
>= 8 km
>= 3000ft
5 to 8 km
1000 to 3000 ft
1500m to 5 km
500 to 1000 ft
800 to 1500m
200 to 500 ft
< 800m
< 200 ft
Symbols :   Thunderstorms  Fog  Heavy snow  Heavy precipitations  Wind > 20 kt
SIGMETs :     Misc.  Thunderstorms  Icing  Turbulence  Mountain Waves  Volcanic Ashes






- Airport Elevation : 46 ft
- IATA code : PAF


LPMT - Montijo Air Base

CURRENT METAR :
  • 201400Z 26007KT 9999 FEW035 24/18 Q1019

EXPIRED METARs :
  • 201300Z 27008KT 9999 FEW032 24/18 Q1019
  • 201200Z 28004KT 240V310 9999 FEW030 23/17 Q1019

TAF TAF LPMT
Valid from the 20 at 12:00 until the 21 at 12:00 UTC


201104Z 2012/2112 26010KT 9999 SCT020
BECMG 2018/2021 31006KT
BECMG 2022/2101 VRB02KT SCT008 SCT015
PROB40 2100/2109 3000 BR BKN005
BECMG 2110/2112 SCT015



MET'MAP, your aeronautical weather chart ! - Copyright ORBIFLY December 2007 - Disclaimer

ORBIFLY MET'MAP TEAM :

Programming & Development : Alexandra Zaïnal
Concept & original design : Baudouin d'Aumeries
Assistance for programming : Marc-Olivier Méhu
Technical & hardware support : Manuel Goepfert

Contact : metmap@orbifly.com




SOURCES & CREDITS :

   NOAA